Berea, OH (44017)

7:55 PM EST on December 22, 2014 (GMT -0500)
Southeast Berea | Change Station
CLOSE
Current Station
Personal Weather Station
Location: Berea, OH
Elevation: 804 ft
Nearby Weather Stations

Elev 804 ft 41.36 °N, 81.84 °W | Updated 11 minutes ago

Mostly Cloudy
Mostly Cloudy
38.5 °F
Feels Like 36 °F
N
3.7
Wind Variable Wind from East

Today
High -- | Low -- °F
--% Chance of Precip.
Yesterday
High -- | Low -- °F
Precip. -- in
7:50 AM 5:01 PM
New Moon, 1% visible
Pressure 29.97 in
Visibility 10.0 miles
Clouds Scattered Clouds 14000 ft
Mostly Cloudy 25000 ft
Windchill 36 °F
Dew Point 30 °F
Humidity 71%
Rainfall 0.00 in
Snow Depth Not available.
UV 0 out of 12
Pollen .10 out of 12
Air Quality Not available.
Flu Activity Not available.
METAR KCLE 230051Z 12010KT 10SM SCT140 BKN250 04/M01 A2994 RMK AO2 SLP147 T00391011

More Conditions Fewer Conditions

Pressure 29.97 in
Visibility 10.0 miles
Clouds Scattered Clouds 14000 ft
Mostly Cloudy 25000 ft
Windchill 36 °F
Dew Point 30 °F
Humidity 71%
Rainfall 0.00 in
Snow Depth Not available.
UV 0 out of 12
Pollen .10 out of 12
Air Quality Not available.
Flu Activity Not available.
METAR KCLE 230051Z 12010KT 10SM SCT140 BKN250 04/M01 A2994 RMK AO2 SLP147 T00391011

More Conditions Fewer Conditions

10-Day Weather Forecast

Almanac

Astronomy

Dec. 22, 2014 Rise Set
Actual Time
Civil Twilight
Nautical Twilight
Astronomical Twilight
Moon
Length of Visible Light
Length of Day
Tomorrow will be .
, % of the Moon is Illuminated

Today's Extremes

State Highs State Lows

Community

WunderPhotos

Upload Photos

1,779,740 photos uploaded!

WunderBlogs® & News

Nearby

Air Quality

  Air Quality AQ Index Pollutant
Not available.

Snow Depth

Station Depth Elevation

Earthquake Activity

City Distance Mag. Time & Date
Minimum magnitude displayed is 2.5.

Coastal Water Temperatures

Place Temperature

Nearby Weather Stations